sensor_id;sensor_type;location;lat;lon;timestamp;P1;durP1;ratioP1;P2;durP2;ratioP2
41305;SDS011;27051;50.376;19.152;2023-08-17T00:00:54;21.70;;;13.90;;
41305;SDS011;27051;50.376;19.152;2023-08-17T00:03:34;18.30;;;12.70;;
41305;SDS011;27051;50.376;19.152;2023-08-17T00:06:01;22.40;;;14.30;;
41305;SDS011;27051;50.376;19.152;2023-08-17T00:08:27;18.90;;;12.70;;
41305;SDS011;27051;50.376;19.152;2023-08-17T00:10:54;22.50;;;13.90;;
41305;SDS011;27051;50.376;19.152;2023-08-17T00:13:20;20.40;;;13.20;;
41305;SDS011;27051;50.376;19.152;2023-08-17T00:15:46;21.30;;;13.00;;
41305;SDS011;27051;50.376;19.152;2023-08-17T00:18:13;18.30;;;11.80;;
41305;SDS011;27051;50.376;19.152;2023-08-17T00:20:39;19.90;;;12.60;;
41305;SDS011;27051;50.376;19.152;2023-08-17T00:23:06;18.10;;;12.00;;
41305;SDS011;27051;50.376;19.152;2023-08-17T00:25:33;18.70;;;12.60;;
41305;SDS011;27051;50.376;19.152;2023-08-17T00:27:59;24.50;;;12.40;;
41305;SDS011;27051;50.376;19.152;2023-08-17T00:30:26;18.60;;;12.70;;
41305;SDS011;27051;50.376;19.152;2023-08-17T00:32:52;19.70;;;12.60;;
41305;SDS011;27051;50.376;19.152;2023-08-17T00:35:19;18.00;;;11.70;;
41305;SDS011;27051;50.376;19.152;2023-08-17T00:37:46;19.30;;;13.30;;
41305;SDS011;27051;50.376;19.152;2023-08-17T00:40:12;16.70;;;12.30;;
41305;SDS011;27051;50.376;19.152;2023-08-17T00:42:38;19.00;;;12.90;;
41305;SDS011;27051;50.376;19.152;2023-08-17T00:45:05;18.10;;;11.70;;
41305;SDS011;27051;50.376;19.152;2023-08-17T00:47:32;18.90;;;11.60;;
41305;SDS011;27051;50.376;19.152;2023-08-17T00:49:58;17.60;;;12.20;;
41305;SDS011;27051;50.376;19.152;2023-08-17T00:52:25;19.30;;;11.70;;
41305;SDS011;27051;50.376;19.152;2023-08-17T00:54:52;17.50;;;12.30;;
41305;SDS011;27051;50.376;19.152;2023-08-17T00:57:19;21.50;;;12.50;;
41305;SDS011;27051;50.376;19.152;2023-08-17T00:59:46;18.40;;;12.10;;
41305;SDS011;27051;50.376;19.152;2023-08-17T01:02:13;19.60;;;11.50;;
41305;SDS011;27051;50.376;19.152;2023-08-17T01:04:39;17.90;;;11.90;;
41305;SDS011;27051;50.376;19.152;2023-08-17T01:07:06;16.00;;;11.40;;
41305;SDS011;27051;50.376;19.152;2023-08-17T01:09:32;16.90;;;11.90;;
41305;SDS011;27051;50.376;19.152;2023-08-17T01:14:53;15.90;;;11.40;;
41305;SDS011;27051;50.376;19.152;2023-08-17T01:17:29;15.40;;;11.20;;
41305;SDS011;27051;50.376;19.152;2023-08-17T01:20:17;20.30;;;12.80;;
41305;SDS011;27051;50.376;19.152;2023-08-17T01:22:46;17.40;;;11.50;;
41305;SDS011;27051;50.376;19.152;2023-08-17T01:25:15;18.90;;;12.70;;
41305;SDS011;27051;50.376;19.152;2023-08-17T01:27:42;17.20;;;12.20;;
41305;SDS011;27051;50.376;19.152;2023-08-17T01:30:10;17.80;;;11.50;;
41305;SDS011;27051;50.376;19.152;2023-08-17T01:35:48;19.80;;;11.30;;
41305;SDS011;27051;50.376;19.152;2023-08-17T01:38:17;17.50;;;10.60;;
41305;SDS011;27051;50.376;19.152;2023-08-17T01:40:48;15.20;;;10.20;;
41305;SDS011;27051;50.376;19.152;2023-08-17T01:43:16;19.80;;;11.50;;
41305;SDS011;27051;50.376;19.152;2023-08-17T01:45:44;16.10;;;11.40;;
41305;SDS011;27051;50.376;19.152;2023-08-17T01:48:11;17.30;;;11.60;;
41305;SDS011;27051;50.376;19.152;2023-08-17T01:50:37;16.30;;;10.90;;
41305;SDS011;27051;50.376;19.152;2023-08-17T01:53:04;17.20;;;10.40;;
41305;SDS011;27051;50.376;19.152;2023-08-17T01:55:30;16.70;;;10.90;;
41305;SDS011;27051;50.376;19.152;2023-08-17T01:57:57;16.10;;;11.40;;
41305;SDS011;27051;50.376;19.152;2023-08-17T02:00:23;18.40;;;11.30;;
41305;SDS011;27051;50.376;19.152;2023-08-17T02:02:49;17.10;;;10.80;;
41305;SDS011;27051;50.376;19.152;2023-08-17T02:05:16;17.30;;;10.20;;
41305;SDS011;27051;50.376;19.152;2023-08-17T02:07:42;14.10;;;10.20;;
41305;SDS011;27051;50.376;19.152;2023-08-17T02:10:09;15.30;;;10.90;;
41305;SDS011;27051;50.376;19.152;2023-08-17T02:12:35;17.50;;;10.80;;
41305;SDS011;27051;50.376;19.152;2023-08-17T02:15:02;17.10;;;10.80;;
41305;SDS011;27051;50.376;19.152;2023-08-17T02:17:29;15.50;;;10.30;;
41305;SDS011;27051;50.376;19.152;2023-08-17T02:19:55;19.80;;;10.90;;
41305;SDS011;27051;50.376;19.152;2023-08-17T02:22:21;17.50;;;10.20;;
41305;SDS011;27051;50.376;19.152;2023-08-17T02:24:48;14.60;;;10.20;;
41305;SDS011;27051;50.376;19.152;2023-08-17T02:27:14;14.60;;;10.00;;
41305;SDS011;27051;50.376;19.152;2023-08-17T02:29:41;16.50;;;10.80;;
41305;SDS011;27051;50.376;19.152;2023-08-17T02:32:08;16.50;;;9.90;;
41305;SDS011;27051;50.376;19.152;2023-08-17T02:34:34;14.50;;;10.00;;
41305;SDS011;27051;50.376;19.152;2023-08-17T02:37:00;15.30;;;10.70;;
41305;SDS011;27051;50.376;19.152;2023-08-17T02:39:27;16.70;;;11.50;;
41305;SDS011;27051;50.376;19.152;2023-08-17T02:41:53;16.40;;;10.70;;
41305;SDS011;27051;50.376;19.152;2023-08-17T02:44:20;16.70;;;10.60;;
41305;SDS011;27051;50.376;19.152;2023-08-17T02:46:47;16.40;;;10.40;;
41305;SDS011;27051;50.376;19.152;2023-08-17T02:49:13;15.30;;;9.20;;
41305;SDS011;27051;50.376;19.152;2023-08-17T02:51:40;18.40;;;10.10;;
41305;SDS011;27051;50.376;19.152;2023-08-17T02:54:06;17.80;;;10.70;;
41305;SDS011;27051;50.376;19.152;2023-08-17T02:56:32;15.10;;;10.20;;
41305;SDS011;27051;50.376;19.152;2023-08-17T02:58:59;17.10;;;10.10;;
41305;SDS011;27051;50.376;19.152;2023-08-17T03:01:25;15.50;;;9.90;;
41305;SDS011;27051;50.376;19.152;2023-08-17T03:03:52;17.50;;;10.20;;
41305;SDS011;27051;50.376;19.152;2023-08-17T03:06:18;17.60;;;10.70;;
41305;SDS011;27051;50.376;19.152;2023-08-17T03:08:45;16.60;;;10.70;;
41305;SDS011;27051;50.376;19.152;2023-08-17T03:11:11;23.00;;;12.20;;
41305;SDS011;27051;50.376;19.152;2023-08-17T03:13:38;20.80;;;11.50;;
41305;SDS011;27051;50.376;19.152;2023-08-17T03:16:04;19.00;;;11.00;;
41305;SDS011;27051;50.376;19.152;2023-08-17T03:18:31;20.40;;;12.20;;
41305;SDS011;27051;50.376;19.152;2023-08-17T03:20:57;23.50;;;11.10;;
41305;SDS011;27051;50.376;19.152;2023-08-17T03:23:24;21.80;;;12.20;;
41305;SDS011;27051;50.376;19.152;2023-08-17T03:25:53;19.70;;;12.40;;
41305;SDS011;27051;50.376;19.152;2023-08-17T03:28:20;22.50;;;12.80;;
41305;SDS011;27051;50.376;19.152;2023-08-17T03:30:46;21.30;;;12.70;;
41305;SDS011;27051;50.376;19.152;2023-08-17T03:33:13;20.30;;;12.60;;
41305;SDS011;27051;50.376;19.152;2023-08-17T03:35:40;19.30;;;12.10;;
41305;SDS011;27051;50.376;19.152;2023-08-17T03:38:06;20.20;;;14.00;;
41305;SDS011;27051;50.376;19.152;2023-08-17T03:40:32;23.10;;;13.80;;
41305;SDS011;27051;50.376;19.152;2023-08-17T03:42:59;19.50;;;12.40;;
41305;SDS011;27051;50.376;19.152;2023-08-17T03:45:25;18.80;;;12.10;;
41305;SDS011;27051;50.376;19.152;2023-08-17T03:47:52;18.80;;;13.20;;
41305;SDS011;27051;50.376;19.152;2023-08-17T03:50:18;16.80;;;11.80;;
41305;SDS011;27051;50.376;19.152;2023-08-17T03:52:45;19.50;;;11.80;;
41305;SDS011;27051;50.376;19.152;2023-08-17T03:55:11;20.20;;;12.40;;
41305;SDS011;27051;50.376;19.152;2023-08-17T03:57:38;21.30;;;12.20;;
41305;SDS011;27051;50.376;19.152;2023-08-17T04:00:04;23.70;;;12.40;;
41305;SDS011;27051;50.376;19.152;2023-08-17T04:02:31;21.00;;;12.10;;
41305;SDS011;27051;50.376;19.152;2023-08-17T04:04:58;21.90;;;12.20;;
41305;SDS011;27051;50.376;19.152;2023-08-17T04:07:25;22.00;;;12.40;;
41305;SDS011;27051;50.376;19.152;2023-08-17T04:09:51;19.70;;;11.60;;
41305;SDS011;27051;50.376;19.152;2023-08-17T04:12:18;19.10;;;11.70;;
41305;SDS011;27051;50.376;19.152;2023-08-17T04:14:44;20.30;;;12.20;;
41305;SDS011;27051;50.376;19.152;2023-08-17T04:17:11;19.60;;;12.10;;
41305;SDS011;27051;50.376;19.152;2023-08-17T04:19:38;16.80;;;12.20;;
41305;SDS011;27051;50.376;19.152;2023-08-17T04:22:04;17.80;;;11.40;;
41305;SDS011;27051;50.376;19.152;2023-08-17T04:24:31;19.20;;;11.40;;
41305;SDS011;27051;50.376;19.152;2023-08-17T04:26:57;18.60;;;12.50;;
41305;SDS011;27051;50.376;19.152;2023-08-17T04:29:24;20.10;;;12.10;;
41305;SDS011;27051;50.376;19.152;2023-08-17T04:31:50;17.90;;;12.90;;
41305;SDS011;27051;50.376;19.152;2023-08-17T04:34:17;18.80;;;12.60;;
41305;SDS011;27051;50.376;19.152;2023-08-17T04:36:43;18.30;;;12.20;;
41305;SDS011;27051;50.376;19.152;2023-08-17T04:39:10;17.30;;;11.10;;
41305;SDS011;27051;50.376;19.152;2023-08-17T04:41:36;18.60;;;12.60;;
41305;SDS011;27051;50.376;19.152;2023-08-17T04:44:03;20.00;;;12.50;;
41305;SDS011;27051;50.376;19.152;2023-08-17T04:46:30;17.30;;;11.80;;
41305;SDS011;27051;50.376;19.152;2023-08-17T04:48:56;20.70;;;13.50;;
41305;SDS011;27051;50.376;19.152;2023-08-17T04:51:23;40.70;;;23.30;;
41305;SDS011;27051;50.376;19.152;2023-08-17T04:53:49;41.40;;;22.20;;
41305;SDS011;27051;50.376;19.152;2023-08-17T04:56:16;29.00;;;17.00;;
41305;SDS011;27051;50.376;19.152;2023-08-17T04:58:42;25.50;;;15.50;;
41305;SDS011;27051;50.376;19.152;2023-08-17T05:01:09;26.90;;;17.60;;
41305;SDS011;27051;50.376;19.152;2023-08-17T05:03:35;36.20;;;21.70;;
41305;SDS011;27051;50.376;19.152;2023-08-17T05:06:02;24.80;;;17.90;;
41305;SDS011;27051;50.376;19.152;2023-08-17T05:08:28;24.50;;;15.50;;
41305;SDS011;27051;50.376;19.152;2023-08-17T05:10:55;26.60;;;17.50;;
41305;SDS011;27051;50.376;19.152;2023-08-17T05:13:22;27.30;;;20.20;;
41305;SDS011;27051;50.376;19.152;2023-08-17T05:15:48;23.60;;;17.20;;
41305;SDS011;27051;50.376;19.152;2023-08-17T05:18:14;32.60;;;20.00;;
41305;SDS011;27051;50.376;19.152;2023-08-17T05:20:41;30.10;;;19.20;;
41305;SDS011;27051;50.376;19.152;2023-08-17T05:23:07;26.50;;;18.90;;
41305;SDS011;27051;50.376;19.152;2023-08-17T05:25:34;27.20;;;18.00;;
41305;SDS011;27051;50.376;19.152;2023-08-17T05:28:00;24.80;;;16.70;;
41305;SDS011;27051;50.376;19.152;2023-08-17T05:30:26;20.10;;;14.90;;
41305;SDS011;27051;50.376;19.152;2023-08-17T05:32:53;20.10;;;14.00;;
41305;SDS011;27051;50.376;19.152;2023-08-17T05:35:19;21.50;;;14.30;;
41305;SDS011;27051;50.376;19.152;2023-08-17T05:37:46;22.30;;;13.50;;
41305;SDS011;27051;50.376;19.152;2023-08-17T05:40:12;24.20;;;14.40;;
41305;SDS011;27051;50.376;19.152;2023-08-17T05:42:39;21.40;;;13.50;;
41305;SDS011;27051;50.376;19.152;2023-08-17T05:45:05;21.10;;;13.50;;
41305;SDS011;27051;50.376;19.152;2023-08-17T05:47:32;24.70;;;13.80;;
41305;SDS011;27051;50.376;19.152;2023-08-17T05:49:59;22.40;;;14.50;;
41305;SDS011;27051;50.376;19.152;2023-08-17T05:52:25;25.50;;;14.20;;
41305;SDS011;27051;50.376;19.152;2023-08-17T05:54:52;19.80;;;12.90;;
41305;SDS011;27051;50.376;19.152;2023-08-17T05:57:18;20.80;;;14.40;;
41305;SDS011;27051;50.376;19.152;2023-08-17T05:59:44;20.50;;;13.50;;
41305;SDS011;27051;50.376;19.152;2023-08-17T06:02:11;23.10;;;14.90;;
41305;SDS011;27051;50.376;19.152;2023-08-17T06:04:37;21.30;;;15.00;;
41305;SDS011;27051;50.376;19.152;2023-08-17T06:07:04;19.30;;;14.20;;
41305;SDS011;27051;50.376;19.152;2023-08-17T06:09:30;21.90;;;14.70;;
41305;SDS011;27051;50.376;19.152;2023-08-17T06:11:57;20.00;;;14.40;;
41305;SDS011;27051;50.376;19.152;2023-08-17T06:14:23;20.20;;;13.20;;
41305;SDS011;27051;50.376;19.152;2023-08-17T06:16:50;22.80;;;14.60;;
41305;SDS011;27051;50.376;19.152;2023-08-17T06:19:16;20.40;;;15.00;;
41305;SDS011;27051;50.376;19.152;2023-08-17T06:21:42;21.70;;;14.70;;
41305;SDS011;27051;50.376;19.152;2023-08-17T06:24:09;20.10;;;14.60;;
41305;SDS011;27051;50.376;19.152;2023-08-17T06:26:35;25.10;;;15.30;;
41305;SDS011;27051;50.376;19.152;2023-08-17T06:29:02;22.60;;;14.30;;
41305;SDS011;27051;50.376;19.152;2023-08-17T06:31:29;21.50;;;14.40;;
41305;SDS011;27051;50.376;19.152;2023-08-17T06:33:55;25.80;;;15.90;;
41305;SDS011;27051;50.376;19.152;2023-08-17T06:36:22;25.50;;;16.10;;
41305;SDS011;27051;50.376;19.152;2023-08-17T06:38:49;22.70;;;15.50;;
41305;SDS011;27051;50.376;19.152;2023-08-17T06:41:16;22.40;;;16.40;;
41305;SDS011;27051;50.376;19.152;2023-08-17T06:43:43;22.90;;;16.00;;
41305;SDS011;27051;50.376;19.152;2023-08-17T06:46:09;23.80;;;16.20;;
41305;SDS011;27051;50.376;19.152;2023-08-17T06:48:35;25.10;;;16.80;;
41305;SDS011;27051;50.376;19.152;2023-08-17T06:51:02;29.00;;;19.50;;
41305;SDS011;27051;50.376;19.152;2023-08-17T06:53:29;27.60;;;19.10;;
41305;SDS011;27051;50.376;19.152;2023-08-17T06:55:55;26.10;;;19.30;;
41305;SDS011;27051;50.376;19.152;2023-08-17T06:58:22;23.90;;;17.70;;
41305;SDS011;27051;50.376;19.152;2023-08-17T07:00:48;27.80;;;16.80;;
41305;SDS011;27051;50.376;19.152;2023-08-17T07:03:15;23.10;;;16.10;;
41305;SDS011;27051;50.376;19.152;2023-08-17T07:05:41;24.70;;;17.30;;
41305;SDS011;27051;50.376;19.152;2023-08-17T07:08:08;23.00;;;16.90;;
41305;SDS011;27051;50.376;19.152;2023-08-17T07:10:34;28.60;;;15.90;;
41305;SDS011;27051;50.376;19.152;2023-08-17T07:13:01;20.90;;;15.50;;
41305;SDS011;27051;50.376;19.152;2023-08-17T07:15:28;30.20;;;17.40;;
41305;SDS011;27051;50.376;19.152;2023-08-17T07:17:54;27.00;;;16.20;;
41305;SDS011;27051;50.376;19.152;2023-08-17T07:20:21;27.50;;;15.70;;
41305;SDS011;27051;50.376;19.152;2023-08-17T07:22:47;21.40;;;15.00;;
41305;SDS011;27051;50.376;19.152;2023-08-17T07:25:14;22.90;;;15.60;;
41305;SDS011;27051;50.376;19.152;2023-08-17T07:27:41;25.50;;;16.00;;
41305;SDS011;27051;50.376;19.152;2023-08-17T07:30:08;27.40;;;16.50;;
41305;SDS011;27051;50.376;19.152;2023-08-17T07:32:35;28.10;;;17.40;;
41305;SDS011;27051;50.376;19.152;2023-08-17T07:35:02;25.10;;;16.50;;
41305;SDS011;27051;50.376;19.152;2023-08-17T07:37:29;28.90;;;17.90;;
41305;SDS011;27051;50.376;19.152;2023-08-17T07:39:55;27.70;;;18.10;;
41305;SDS011;27051;50.376;19.152;2023-08-17T07:42:22;26.80;;;16.40;;
41305;SDS011;27051;50.376;19.152;2023-08-17T07:44:48;29.80;;;17.20;;
41305;SDS011;27051;50.376;19.152;2023-08-17T07:47:15;25.70;;;16.30;;
41305;SDS011;27051;50.376;19.152;2023-08-17T07:49:42;30.40;;;17.20;;
41305;SDS011;27051;50.376;19.152;2023-08-17T07:52:09;34.30;;;18.00;;
41305;SDS011;27051;50.376;19.152;2023-08-17T07:54:35;32.10;;;19.10;;
41305;SDS011;27051;50.376;19.152;2023-08-17T07:57:02;37.80;;;20.20;;
41305;SDS011;27051;50.376;19.152;2023-08-17T07:59:29;34.30;;;18.30;;
41305;SDS011;27051;50.376;19.152;2023-08-17T08:01:55;31.60;;;17.30;;
41305;SDS011;27051;50.376;19.152;2023-08-17T08:04:22;28.80;;;16.40;;
41305;SDS011;27051;50.376;19.152;2023-08-17T08:06:48;30.50;;;17.70;;
41305;SDS011;27051;50.376;19.152;2023-08-17T08:09:15;28.20;;;17.40;;
41305;SDS011;27051;50.376;19.152;2023-08-17T08:11:42;34.60;;;18.80;;
41305;SDS011;27051;50.376;19.152;2023-08-17T08:14:08;28.00;;;16.60;;
41305;SDS011;27051;50.376;19.152;2023-08-17T08:16:35;28.90;;;16.60;;
41305;SDS011;27051;50.376;19.152;2023-08-17T08:19:01;34.30;;;18.30;;
41305;SDS011;27051;50.376;19.152;2023-08-17T08:21:28;35.10;;;18.70;;
41305;SDS011;27051;50.376;19.152;2023-08-17T08:23:56;35.60;;;17.40;;
41305;SDS011;27051;50.376;19.152;2023-08-17T08:26:22;28.90;;;16.70;;
41305;SDS011;27051;50.376;19.152;2023-08-17T08:28:49;38.70;;;18.20;;
41305;SDS011;27051;50.376;19.152;2023-08-17T08:31:16;34.40;;;18.80;;
41305;SDS011;27051;50.376;19.152;2023-08-17T08:33:43;31.20;;;18.80;;
41305;SDS011;27051;50.376;19.152;2023-08-17T08:36:11;39.10;;;18.30;;
41305;SDS011;27051;50.376;19.152;2023-08-17T08:38:38;33.20;;;17.40;;
41305;SDS011;27051;50.376;19.152;2023-08-17T08:41:06;31.50;;;17.00;;
41305;SDS011;27051;50.376;19.152;2023-08-17T08:43:35;28.20;;;17.30;;
41305;SDS011;27051;50.376;19.152;2023-08-17T08:46:02;33.80;;;19.50;;
41305;SDS011;27051;50.376;19.152;2023-08-17T08:48:31;32.60;;;17.60;;
41305;SDS011;27051;50.376;19.152;2023-08-17T08:50:59;34.80;;;17.70;;
41305;SDS011;27051;50.376;19.152;2023-08-17T08:53:28;29.90;;;16.60;;
41305;SDS011;27051;50.376;19.152;2023-08-17T08:55:58;31.90;;;16.30;;
41305;SDS011;27051;50.376;19.152;2023-08-17T08:58:26;30.90;;;17.60;;
41305;SDS011;27051;50.376;19.152;2023-08-17T09:00:52;32.50;;;17.90;;
41305;SDS011;27051;50.376;19.152;2023-08-17T09:03:20;29.60;;;18.20;;
41305;SDS011;27051;50.376;19.152;2023-08-17T09:05:47;34.20;;;17.10;;
41305;SDS011;27051;50.376;19.152;2023-08-17T09:08:17;33.00;;;18.20;;
41305;SDS011;27051;50.376;19.152;2023-08-17T09:10:47;29.00;;;16.00;;
41305;SDS011;27051;50.376;19.152;2023-08-17T09:13:15;25.80;;;15.60;;
41305;SDS011;27051;50.376;19.152;2023-08-17T09:15:42;35.80;;;16.70;;
41305;SDS011;27051;50.376;19.152;2023-08-17T09:18:09;26.30;;;14.50;;
41305;SDS011;27051;50.376;19.152;2023-08-17T09:23:10;24.00;;;13.70;;
41305;SDS011;27051;50.376;19.152;2023-08-17T09:25:42;21.20;;;11.40;;
41305;SDS011;27051;50.376;19.152;2023-08-17T09:28:10;21.70;;;12.70;;
41305;SDS011;27051;50.376;19.152;2023-08-17T09:30:51;24.20;;;13.70;;
41305;SDS011;27051;50.376;19.152;2023-08-17T09:33:25;25.50;;;14.50;;
41305;SDS011;27051;50.376;19.152;2023-08-17T09:35:54;20.30;;;12.50;;
41305;SDS011;27051;50.376;19.152;2023-08-17T09:38:21;22.60;;;12.20;;
41305;SDS011;27051;50.376;19.152;2023-08-17T09:40:48;25.10;;;11.90;;
41305;SDS011;27051;50.376;19.152;2023-08-17T09:43:16;23.80;;;11.60;;
41305;SDS011;27051;50.376;19.152;2023-08-17T09:45:44;19.90;;;11.00;;
41305;SDS011;27051;50.376;19.152;2023-08-17T09:48:11;18.90;;;11.30;;
41305;SDS011;27051;50.376;19.152;2023-08-17T09:50:42;24.00;;;12.10;;
41305;SDS011;27051;50.376;19.152;2023-08-17T09:53:12;20.80;;;11.30;;
41305;SDS011;27051;50.376;19.152;2023-08-17T09:55:40;17.60;;;10.10;;
41305;SDS011;27051;50.376;19.152;2023-08-17T09:58:08;14.70;;;9.40;;
41305;SDS011;27051;50.376;19.152;2023-08-17T10:00:35;19.60;;;9.30;;
41305;SDS011;27051;50.376;19.152;2023-08-17T10:03:04;16.40;;;9.60;;
41305;SDS011;27051;50.376;19.152;2023-08-17T10:05:36;13.60;;;8.70;;
41305;SDS011;27051;50.376;19.152;2023-08-17T10:08:07;12.70;;;8.60;;
41305;SDS011;27051;50.376;19.152;2023-08-17T10:10:38;20.00;;;8.70;;
41305;SDS011;27051;50.376;19.152;2023-08-17T10:13:09;11.40;;;8.60;;
41305;SDS011;27051;50.376;19.152;2023-08-17T10:15:38;12.40;;;8.90;;
41305;SDS011;27051;50.376;19.152;2023-08-17T10:21:06;11.20;;;9.00;;
41305;SDS011;27051;50.376;19.152;2023-08-17T10:23:36;14.10;;;8.20;;
41305;SDS011;27051;50.376;19.152;2023-08-17T10:26:04;13.70;;;8.50;;
41305;SDS011;27051;50.376;19.152;2023-08-17T10:28:31;12.30;;;9.20;;
41305;SDS011;27051;50.376;19.152;2023-08-17T10:30:58;10.80;;;7.90;;
41305;SDS011;27051;50.376;19.152;2023-08-17T10:33:25;10.90;;;8.10;;
41305;SDS011;27051;50.376;19.152;2023-08-17T10:35:53;11.70;;;8.10;;
41305;SDS011;27051;50.376;19.152;2023-08-17T10:38:21;9.60;;;7.80;;
41305;SDS011;27051;50.376;19.152;2023-08-17T10:43:58;8.60;;;6.90;;
41305;SDS011;27051;50.376;19.152;2023-08-17T10:46:36;10.10;;;6.60;;
41305;SDS011;27051;50.376;19.152;2023-08-17T10:49:04;10.10;;;6.40;;
41305;SDS011;27051;50.376;19.152;2023-08-17T10:51:32;10.00;;;6.20;;
41305;SDS011;27051;50.376;19.152;2023-08-17T10:54:02;9.40;;;6.10;;
41305;SDS011;27051;50.376;19.152;2023-08-17T10:56:29;6.80;;;5.60;;
41305;SDS011;27051;50.376;19.152;2023-08-17T10:59:00;7.20;;;6.40;;
41305;SDS011;27051;50.376;19.152;2023-08-17T11:01:36;9.90;;;6.00;;
41305;SDS011;27051;50.376;19.152;2023-08-17T11:04:09;8.40;;;6.30;;
41305;SDS011;27051;50.376;19.152;2023-08-17T11:06:52;9.60;;;5.60;;
41305;SDS011;27051;50.376;19.152;2023-08-17T11:09:27;9.80;;;5.40;;
41305;SDS011;27051;50.376;19.152;2023-08-17T11:11:54;12.00;;;6.90;;
41305;SDS011;27051;50.376;19.152;2023-08-17T11:14:20;8.10;;;6.10;;
41305;SDS011;27051;50.376;19.152;2023-08-17T11:16:47;10.60;;;6.20;;
41305;SDS011;27051;50.376;19.152;2023-08-17T11:19:13;7.20;;;5.80;;
41305;SDS011;27051;50.376;19.152;2023-08-17T11:21:40;7.10;;;5.90;;
41305;SDS011;27051;50.376;19.152;2023-08-17T11:24:09;7.20;;;5.70;;
41305;SDS011;27051;50.376;19.152;2023-08-17T11:26:36;8.70;;;5.50;;
41305;SDS011;27051;50.376;19.152;2023-08-17T11:29:03;7.80;;;5.60;;
41305;SDS011;27051;50.376;19.152;2023-08-17T11:31:29;9.30;;;6.20;;
41305;SDS011;27051;50.376;19.152;2023-08-17T11:33:58;9.50;;;5.50;;
41305;SDS011;27051;50.376;19.152;2023-08-17T11:36:24;10.40;;;6.30;;
41305;SDS011;27051;50.376;19.152;2023-08-17T11:38:51;7.90;;;6.00;;
41305;SDS011;27051;50.376;19.152;2023-08-17T11:41:18;10.30;;;6.10;;
41305;SDS011;27051;50.376;19.152;2023-08-17T11:43:45;12.80;;;6.40;;
41305;SDS011;27051;50.376;19.152;2023-08-17T11:46:11;9.60;;;6.40;;
41305;SDS011;27051;50.376;19.152;2023-08-17T11:48:38;11.50;;;5.80;;
41305;SDS011;27051;50.376;19.152;2023-08-17T11:51:08;17.50;;;5.60;;
41305;SDS011;27051;50.376;19.152;2023-08-17T11:53:35;14.50;;;5.80;;
41305;SDS011;27051;50.376;19.152;2023-08-17T11:56:02;7.90;;;5.10;;
41305;SDS011;27051;50.376;19.152;2023-08-17T11:58:42;11.90;;;6.00;;
41305;SDS011;27051;50.376;19.152;2023-08-17T12:01:10;10.20;;;5.50;;
41305;SDS011;27051;50.376;19.152;2023-08-17T12:03:37;12.00;;;6.40;;
41305;SDS011;27051;50.376;19.152;2023-08-17T12:06:04;12.70;;;6.30;;
41305;SDS011;27051;50.376;19.152;2023-08-17T12:08:31;8.50;;;6.50;;
41305;SDS011;27051;50.376;19.152;2023-08-17T12:10:58;17.20;;;8.20;;
41305;SDS011;27051;50.376;19.152;2023-08-17T12:13:31;14.00;;;7.30;;
41305;SDS011;27051;50.376;19.152;2023-08-17T12:15:59;56.20;;;49.80;;
41305;SDS011;27051;50.376;19.152;2023-08-17T12:18:26;14.90;;;10.20;;
41305;SDS011;27051;50.376;19.152;2023-08-17T12:20:52;17.10;;;7.70;;
41305;SDS011;27051;50.376;19.152;2023-08-17T12:23:20;9.50;;;6.80;;
41305;SDS011;27051;50.376;19.152;2023-08-17T12:25:51;9.30;;;6.50;;
41305;SDS011;27051;50.376;19.152;2023-08-17T12:28:18;11.00;;;6.60;;
41305;SDS011;27051;50.376;19.152;2023-08-17T12:30:45;10.20;;;6.80;;
41305;SDS011;27051;50.376;19.152;2023-08-17T12:33:11;10.20;;;6.80;;
41305;SDS011;27051;50.376;19.152;2023-08-17T12:35:40;12.90;;;7.30;;
41305;SDS011;27051;50.376;19.152;2023-08-17T12:38:07;11.50;;;7.90;;
41305;SDS011;27051;50.376;19.152;2023-08-17T12:40:34;16.30;;;8.60;;
41305;SDS011;27051;50.376;19.152;2023-08-17T12:43:00;12.70;;;7.60;;
41305;SDS011;27051;50.376;19.152;2023-08-17T12:45:26;11.50;;;8.20;;
41305;SDS011;27051;50.376;19.152;2023-08-17T12:47:53;17.30;;;9.00;;
41305;SDS011;27051;50.376;19.152;2023-08-17T12:50:19;17.00;;;9.00;;
41305;SDS011;27051;50.376;19.152;2023-08-17T12:52:46;12.30;;;7.50;;
41305;SDS011;27051;50.376;19.152;2023-08-17T12:55:12;12.50;;;7.90;;
41305;SDS011;27051;50.376;19.152;2023-08-17T12:57:39;13.50;;;8.10;;
41305;SDS011;27051;50.376;19.152;2023-08-17T13:00:06;15.20;;;8.50;;
41305;SDS011;27051;50.376;19.152;2023-08-17T13:02:42;14.20;;;8.60;;
41305;SDS011;27051;50.376;19.152;2023-08-17T13:05:08;18.50;;;8.90;;
41305;SDS011;27051;50.376;19.152;2023-08-17T13:07:35;14.60;;;8.10;;
41305;SDS011;27051;50.376;19.152;2023-08-17T13:10:01;10.80;;;7.50;;
41305;SDS011;27051;50.376;19.152;2023-08-17T13:12:28;16.20;;;8.20;;
41305;SDS011;27051;50.376;19.152;2023-08-17T13:14:54;17.00;;;7.80;;
41305;SDS011;27051;50.376;19.152;2023-08-17T13:17:21;12.80;;;7.00;;
41305;SDS011;27051;50.376;19.152;2023-08-17T13:19:47;10.60;;;5.30;;
41305;SDS011;27051;50.376;19.152;2023-08-17T13:22:13;9.50;;;5.30;;
41305;SDS011;27051;50.376;19.152;2023-08-17T13:24:40;9.10;;;5.90;;
41305;SDS011;27051;50.376;19.152;2023-08-17T13:27:06;9.10;;;5.20;;
41305;SDS011;27051;50.376;19.152;2023-08-17T13:29:33;11.60;;;4.90;;
41305;SDS011;27051;50.376;19.152;2023-08-17T13:31:59;8.00;;;4.80;;
41305;SDS011;27051;50.376;19.152;2023-08-17T13:34:26;9.60;;;5.30;;
41305;SDS011;27051;50.376;19.152;2023-08-17T13:36:52;7.90;;;5.20;;
41305;SDS011;27051;50.376;19.152;2023-08-17T13:39:19;7.90;;;4.80;;
41305;SDS011;27051;50.376;19.152;2023-08-17T13:41:45;11.20;;;5.00;;
41305;SDS011;27051;50.376;19.152;2023-08-17T13:44:12;9.80;;;5.50;;
41305;SDS011;27051;50.376;19.152;2023-08-17T13:46:44;9.20;;;4.80;;
41305;SDS011;27051;50.376;19.152;2023-08-17T13:49:11;8.60;;;5.30;;
41305;SDS011;27051;50.376;19.152;2023-08-17T13:51:37;9.10;;;4.90;;
41305;SDS011;27051;50.376;19.152;2023-08-17T13:54:03;8.20;;;4.60;;
41305;SDS011;27051;50.376;19.152;2023-08-17T13:56:30;7.30;;;4.40;;
41305;SDS011;27051;50.376;19.152;2023-08-17T13:58:57;9.00;;;4.70;;
41305;SDS011;27051;50.376;19.152;2023-08-17T14:01:23;5.50;;;4.50;;
41305;SDS011;27051;50.376;19.152;2023-08-17T14:03:50;7.10;;;4.40;;
41305;SDS011;27051;50.376;19.152;2023-08-17T14:06:16;7.80;;;4.50;;
41305;SDS011;27051;50.376;19.152;2023-08-17T14:08:42;7.80;;;4.40;;
41305;SDS011;27051;50.376;19.152;2023-08-17T14:11:09;8.90;;;5.00;;
41305;SDS011;27051;50.376;19.152;2023-08-17T14:13:35;8.70;;;5.40;;
41305;SDS011;27051;50.376;19.152;2023-08-17T14:16:02;7.40;;;4.50;;
41305;SDS011;27051;50.376;19.152;2023-08-17T14:18:29;6.50;;;4.40;;
41305;SDS011;27051;50.376;19.152;2023-08-17T14:20:55;9.10;;;4.80;;
41305;SDS011;27051;50.376;19.152;2023-08-17T14:23:22;7.70;;;4.40;;
41305;SDS011;27051;50.376;19.152;2023-08-17T14:25:48;5.30;;;4.20;;
41305;SDS011;27051;50.376;19.152;2023-08-17T14:28:14;9.60;;;5.00;;